Time;durP1;ratioP1;P1;durP2;ratioP2;P2;SDS_P1;SDS_P2;PMS_P1;PMS_P2;Temp;Humidity;BMP_temperature;BMP_pressure;BME280_temperature;BME280_humidity;BME280_pressure;Samples;Min_cycle;Max_cycle;Signal;HPM_P1;HPM_P2
2021/07/25 00:00:46;;;;;;;3.33;1.40;;;16.70;99.90;;;;;;2016570;29;20202;-75
2021/07/25 00:01:46;;;;;;;1.30;1.30;;;16.70;99.90;;;;;;2024530;29;20716;-75
2021/07/25 00:02:50;;;;;;;3.27;2.00;;;16.70;99.90;;;;;;2016855;29;20183;-74
2021/07/25 00:03:50;;;;;;;1.70;1.60;;;16.80;99.90;;;;;;2017170;29;20289;-75
2021/07/25 00:04:51;;;;;;;1.80;1.70;;;16.70;99.90;;;;;;2024096;29;20807;-75
2021/07/25 00:05:52;;;;;;;7.60;1.77;;;16.70;99.90;;;;;;2016804;29;20252;-75
2021/07/25 00:06:53;;;;;;;1.63;1.43;;;16.70;99.90;;;;;;2016567;29;21041;-75
2021/07/25 00:07:53;;;;;;;8.53;1.27;;;16.60;99.90;;;;;;2016515;29;20190;-75
2021/07/25 00:08:54;;;;;;;1.40;1.30;;;16.60;99.90;;;;;;2008982;29;20314;-75
2021/07/25 00:09:55;;;;;;;1.73;1.63;;;16.60;99.90;;;;;;2016564;29;20194;-75
2021/07/25 00:10:56;;;;;;;3.03;1.23;;;16.60;99.90;;;;;;2024415;29;20544;-75
2021/07/25 00:11:57;;;;;;;3.50;2.20;;;16.60;99.90;;;;;;2016558;29;20253;-75
2021/07/25 00:12:58;;;;;;;1.83;1.70;;;16.50;99.90;;;;;;2016716;29;20438;-75
2021/07/25 00:14:03;;;;;;;1.13;1.13;;;16.50;99.90;;;;;;2016851;29;20194;-74
2021/07/25 00:15:04;;;;;;;2.17;1.97;;;16.60;99.90;;;;;;2009699;29;20645;-75
2021/07/25 00:16:05;;;;;;;1.63;1.53;;;16.60;99.90;;;;;;2009666;29;20447;-74
2021/07/25 00:17:06;;;;;;;1.60;1.50;;;16.60;99.90;;;;;;2009038;29;20435;-74
2021/07/25 00:18:07;;;;;;;2.57;1.70;;;16.70;99.90;;;;;;2009034;29;20439;-74
2021/07/25 00:19:12;;;;;;;2.37;1.73;;;16.70;99.90;;;;;;2016703;29;20197;-74
2021/07/25 00:20:13;;;;;;;1.90;1.80;;;16.70;99.90;;;;;;2016775;29;20210;-75
2021/07/25 00:21:14;;;;;;;1.57;1.47;;;16.70;99.90;;;;;;2017247;29;20453;-74
2021/07/25 00:22:15;;;;;;;1.97;1.33;;;16.70;99.90;;;;;;2024231;29;20979;-74
2021/07/25 00:23:18;;;;;;;2.07;1.90;;;16.70;99.90;;;;;;2024367;29;20462;-75
2021/07/25 00:24:23;;;;;;;1.10;0.97;;;16.70;99.90;;;;;;2024390;29;20250;-74
2021/07/25 00:25:24;;;;;;;1.30;1.20;;;16.70;99.90;;;;;;2016578;29;20427;-77
2021/07/25 00:26:26;;;;;;;1.33;1.23;;;16.70;99.90;;;;;;2016884;29;20952;-74
2021/07/25 00:27:27;;;;;;;2.00;1.63;;;16.60;99.90;;;;;;2018002;29;20213;-75
2021/07/25 00:28:34;;;;;;;1.03;1.00;;;16.70;99.90;;;;;;2018216;29;20514;-75
2021/07/25 00:29:35;;;;;;;1.27;1.20;;;16.70;99.90;;;;;;2011307;29;20539;-75
2021/07/25 00:30:36;;;;;;;0.50;0.50;;;16.70;99.90;;;;;;2017910;29;20454;-75
2021/07/25 00:31:37;;;;;;;1.43;1.33;;;16.80;99.90;;;;;;2018177;29;20193;-75
2021/07/25 00:32:40;;;;;;;2.00;1.83;;;16.70;99.90;;;;;;2018094;29;20186;-75
2021/07/25 00:33:41;;;;;;;1.53;1.43;;;16.70;99.90;;;;;;2018104;29;20456;-75
2021/07/25 00:34:41;;;;;;;1.37;0.77;;;16.70;99.90;;;;;;2010339;29;20485;-75
2021/07/25 00:35:42;;;;;;;1.03;1.03;;;16.60;99.90;;;;;;2010289;29;20621;-74
2021/07/25 00:36:43;;;;;;;1.10;1.10;;;16.60;99.90;;;;;;2012162;29;20571;-75
2021/07/25 00:37:48;;;;;;;1.20;1.13;;;16.60;99.90;;;;;;2033395;29;20193;-74
2021/07/25 00:38:48;;;;;;;2.50;1.70;;;16.50;99.90;;;;;;2017810;29;20593;-75
2021/07/25 00:39:49;;;;;;;2.03;1.53;;;16.40;99.90;;;;;;2018016;29;20431;-75
2021/07/25 00:40:56;;;;;;;1.47;1.43;;;16.40;99.90;;;;;;2033471;29;20213;-75
2021/07/25 00:41:56;;;;;;;1.00;0.83;;;16.40;99.90;;;;;;2025799;29;20660;-75
2021/07/25 00:42:57;;;;;;;1.37;1.13;;;16.40;99.90;;;;;;2025690;29;20464;-74
2021/07/25 00:43:59;;;;;;;1.07;1.07;;;16.40;99.90;;;;;;2026345;29;20556;-75
2021/07/25 00:45:00;;;;;;;6.50;1.60;;;16.30;99.90;;;;;;2033327;29;20193;-74
2021/07/25 00:46:02;;;;;;;0.93;0.93;;;16.30;99.90;;;;;;2025432;29;20433;-74
2021/07/25 00:47:03;;;;;;;0.80;0.80;;;16.30;99.90;;;;;;2018128;29;20215;-74
2021/07/25 00:48:04;;;;;;;1.73;1.63;;;16.30;99.90;;;;;;2018044;29;20435;-74
2021/07/25 00:49:05;;;;;;;2.77;1.33;;;16.40;99.90;;;;;;2025738;29;20481;-77
2021/07/25 00:50:08;;;;;;;0.97;0.97;;;16.40;99.90;;;;;;2025571;29;20433;-74
2021/07/25 00:51:08;;;;;;;1.93;1.50;;;16.50;99.90;;;;;;2026045;29;20186;-74
2021/07/25 00:52:09;;;;;;;6.03;1.50;;;16.40;99.90;;;;;;2033482;29;20437;-74
2021/07/25 00:53:10;;;;;;;1.50;1.40;;;16.40;99.90;;;;;;2025824;29;20193;-75
2021/07/25 00:54:13;;;;;;;0.73;0.73;;;16.40;99.90;;;;;;2017965;29;20281;-74
2021/07/25 00:55:14;;;;;;;0.90;0.90;;;16.40;99.90;;;;;;2018298;29;20198;-74
2021/07/25 00:56:15;;;;;;;0.80;0.80;;;16.30;99.90;;;;;;2017745;29;20442;-74
2021/07/25 00:57:16;;;;;;;0.93;0.93;;;16.30;99.90;;;;;;2025461;29;20434;-74
2021/07/25 00:58:16;;;;;;;1.37;1.10;;;16.30;99.90;;;;;;2026248;29;20200;-74
2021/07/25 00:59:17;;;;;;;0.97;0.97;;;16.30;99.90;;;;;;2025591;29;20205;-74
2021/07/25 01:00:19;;;;;;;2.10;1.33;;;16.30;99.90;;;;;;2025672;29;20672;-74
2021/07/25 01:01:22;;;;;;;1.73;1.58;;;16.30;99.90;;;;;;2033582;29;20288;-74
2021/07/25 01:02:26;;;;;;;0.60;0.60;;;16.30;99.90;;;;;;2033360;29;20185;-74
2021/07/25 01:03:40;;;;;;;1.03;1.00;;;16.30;99.90;;;;;;2025534;29;20457;-74
2021/07/25 01:05:04;;;;;;;1.07;0.90;;;16.30;99.90;;;;;;2027302;29;20861;-74
2021/07/25 01:07:03;;;;;;;1.37;1.27;;;16.30;99.90;;;;;;2025633;29;20504;-74
2021/07/25 01:08:35;;;;;;;0.80;0.80;;;16.30;99.90;;;;;;2025100;29;20437;-74
2021/07/25 01:10:13;;;;;;;0.93;0.93;;;16.30;99.90;;;;;;2025430;29;20478;-74
2021/07/25 01:11:14;;;;;;;1.15;1.08;;;16.20;99.90;;;;;;2011577;29;20890;-75
2021/07/25 01:12:24;;;;;;;1.17;1.07;;;16.20;99.90;;;;;;2017552;29;20209;-74
2021/07/25 01:13:30;;;;;;;1.35;0.93;;;16.20;99.90;;;;;;2026722;29;20181;-74
2021/07/25 01:14:35;;;;;;;0.70;0.60;;;16.20;99.90;;;;;;2025662;29;20786;-74
2021/07/25 01:15:39;;;;;;;2.78;0.98;;;16.30;99.90;;;;;;2025631;29;20426;-74
2021/07/25 01:16:40;;;;;;;1.60;1.13;;;16.30;99.90;;;;;;2025866;29;20197;-76
2021/07/25 01:17:41;;;;;;;2.07;1.00;;;16.30;99.90;;;;;;2033224;29;20481;-75
2021/07/25 01:18:49;;;;;;;1.33;1.23;;;16.30;99.90;;;;;;2033336;29;20196;-75
2021/07/25 01:19:50;;;;;;;1.33;1.10;;;16.40;99.90;;;;;;2025462;29;20185;-74
2021/07/25 01:20:51;;;;;;;1.13;1.13;;;16.40;99.90;;;;;;2017647;29;20492;-75
2021/07/25 01:21:52;;;;;;;1.37;1.27;;;16.40;99.90;;;;;;2025547;29;20205;-75
2021/07/25 01:22:56;;;;;;;4.37;0.90;;;16.40;99.90;;;;;;2025446;29;20430;-74
2021/07/25 01:23:59;;;;;;;1.53;1.40;;;16.30;99.90;;;;;;2025713;29;20189;-74
2021/07/25 01:25:01;;;;;;;1.30;1.20;;;16.30;99.90;;;;;;2025441;29;20430;-74
2021/07/25 01:26:02;;;;;;;1.00;0.70;;;16.30;99.90;;;;;;2018139;29;20438;-75
2021/07/25 01:27:03;;;;;;;1.00;1.00;;;16.20;99.90;;;;;;2025373;29;21012;-74
2021/07/25 01:28:20;;;;;;;1.00;0.90;;;16.20;99.90;;;;;;2025640;29;20279;-74
2021/07/25 01:29:21;;;;;;;0.88;0.88;;;16.20;99.90;;;;;;2027486;29;20660;-73
2021/07/25 01:30:25;;;;;;;2.57;1.23;;;16.20;99.90;;;;;;2025550;29;20198;-74
2021/07/25 01:31:33;;;;;;;0.70;0.70;;;16.30;99.90;;;;;;2025946;29;20189;-75
2021/07/25 01:32:35;;;;;;;1.50;0.85;;;16.30;99.90;;;;;;2025426;29;20452;-75
2021/07/25 01:33:36;;;;;;;0.80;0.80;;;16.30;99.90;;;;;;2017616;29;20261;-74
2021/07/25 01:34:38;;;;;;;0.70;0.70;;;16.40;99.90;;;;;;2025418;29;20445;-74
2021/07/25 01:35:41;;;;;;;0.67;0.67;;;16.40;99.90;;;;;;2025370;29;20434;-74
2021/07/25 01:36:43;;;;;;;1.37;1.27;;;16.40;99.90;;;;;;2025594;29;20441;-75
2021/07/25 01:37:44;;;;;;;0.63;0.63;;;16.40;99.90;;;;;;2032894;29;20801;-75
2021/07/25 01:38:45;;;;;;;0.65;0.63;;;16.50;99.90;;;;;;2033297;29;20237;-75
2021/07/25 01:39:46;;;;;;;1.52;1.42;;;16.40;99.90;;;;;;2025399;29;20181;-75
2021/07/25 01:41:07;;;;;;;1.50;1.40;;;16.40;99.90;;;;;;2025373;29;20225;-75
2021/07/25 01:42:07;;;;;;;1.20;1.10;;;16.30;99.90;;;;;;2033135;29;20188;-75
2021/07/25 01:43:13;;;;;;;1.13;1.07;;;16.30;99.90;;;;;;2033108;29;20215;-76
2021/07/25 01:44:14;;;;;;;0.70;0.70;;;16.20;99.90;;;;;;2025353;29;20250;-75
2021/07/25 01:45:15;;;;;;;0.90;0.90;;;16.20;99.90;;;;;;2018112;29;20548;-75
2021/07/25 01:46:16;;;;;;;1.90;1.13;;;16.10;99.90;;;;;;2017998;29;20183;-75
2021/07/25 01:47:17;;;;;;;0.82;0.82;;;16.10;99.90;;;;;;2025310;29;20174;-75
2021/07/25 01:48:18;;;;;;;1.00;1.00;;;16.00;99.90;;;;;;2025288;29;20605;-75
2021/07/25 01:49:18;;;;;;;1.67;1.30;;;15.90;99.90;;;;;;2025254;29;20246;-75
2021/07/25 01:50:19;;;;;;;0.90;0.90;;;15.90;99.90;;;;;;2025142;29;20201;-75
2021/07/25 01:51:19;;;;;;;0.80;0.80;;;15.80;99.90;;;;;;2033096;29;20181;-75
2021/07/25 01:52:20;;;;;;;1.50;1.40;;;15.80;99.90;;;;;;2033079;29;20216;-75
2021/07/25 01:53:21;;;;;;;0.93;0.80;;;15.90;99.90;;;;;;2033054;29;20213;-75
2021/07/25 01:54:22;;;;;;;1.10;1.00;;;15.90;99.90;;;;;;2032920;29;20575;-75
2021/07/25 01:55:22;;;;;;;1.33;1.23;;;15.90;99.90;;;;;;2025273;29;20551;-75
2021/07/25 01:56:23;;;;;;;0.97;0.97;;;15.90;99.90;;;;;;2025126;29;20189;-75
2021/07/25 01:57:24;;;;;;;0.77;0.70;;;15.90;99.90;;;;;;2032935;29;20291;-75
2021/07/25 01:58:25;;;;;;;2.00;1.13;;;15.90;99.90;;;;;;2025327;29;20236;-75
2021/07/25 01:59:26;;;;;;;0.70;0.70;;;15.90;99.90;;;;;;2017511;29;20266;-75
2021/07/25 02:00:26;;;;;;;0.90;0.90;;;15.90;99.90;;;;;;2025109;29;20318;-76
2021/07/25 02:01:27;;;;;;;0.87;0.87;;;15.90;99.90;;;;;;2025126;29;20229;-75
2021/07/25 02:02:28;;;;;;;0.67;0.67;;;15.90;99.90;;;;;;2025594;29;20184;-75
2021/07/25 02:03:28;;;;;;;1.10;1.00;;;15.80;99.90;;;;;;2032910;29;20205;-75
2021/07/25 02:04:29;;;;;;;0.80;0.80;;;15.80;99.90;;;;;;2025026;29;20206;-75
2021/07/25 02:05:30;;;;;;;0.97;0.90;;;15.80;99.90;;;;;;2017290;29;20670;-75
2021/07/25 02:06:35;;;;;;;1.17;1.10;;;15.80;99.90;;;;;;2024987;29;20256;-75
2021/07/25 02:07:36;;;;;;;0.50;0.50;;;15.80;99.90;;;;;;2024689;29;20249;-75
2021/07/25 02:08:37;;;;;;;0.70;0.70;;;15.80;99.90;;;;;;2018884;29;20588;-75
2021/07/25 02:09:39;;;;;;;0.80;0.80;;;15.80;99.90;;;;;;2017292;29;20194;-75
2021/07/25 02:10:52;;;;;;;0.90;0.88;;;15.80;99.90;;;;;;2017103;29;20285;-75
2021/07/25 02:11:55;;;;;;;0.63;0.63;;;15.80;99.90;;;;;;2011154;29;20267;-75
2021/07/25 02:12:57;;;;;;;0.93;0.88;;;15.80;99.90;;;;;;2017459;29;20271;-75
2021/07/25 02:13:57;;;;;;;0.70;0.70;;;15.70;99.90;;;;;;2017493;29;20196;-75
2021/07/25 02:14:58;;;;;;;0.80;0.80;;;15.70;99.90;;;;;;2017150;29;20186;-75
2021/07/25 02:15:59;;;;;;;1.43;1.13;;;15.70;99.90;;;;;;2017323;29;20194;-75
2021/07/25 02:17:01;;;;;;;1.20;0.90;;;15.80;99.90;;;;;;2009327;29;20193;-76
2021/07/25 02:18:01;;;;;;;0.90;0.90;;;15.70;99.90;;;;;;2009773;29;20206;-75
2021/07/25 02:19:02;;;;;;;3.43;0.63;;;15.80;99.90;;;;;;2017223;29;20545;-75
2021/07/25 02:20:04;;;;;;;0.57;0.57;;;15.80;99.90;;;;;;2024978;29;20178;-75
2021/07/25 02:21:05;;;;;;;1.25;1.17;;;15.80;99.90;;;;;;2017259;29;20193;-75
2021/07/25 02:22:06;;;;;;;0.97;0.90;;;15.90;99.90;;;;;;2017309;29;20191;-75
2021/07/25 02:23:08;;;;;;;1.03;0.97;;;15.90;99.90;;;;;;2017070;29;20206;-75
2021/07/25 02:24:08;;;;;;;3.47;1.10;;;16.00;99.90;;;;;;2017416;29;20258;-75
2021/07/25 02:25:11;;;;;;;0.77;0.77;;;16.00;99.90;;;;;;2024939;29;20182;-75
2021/07/25 02:26:12;;;;;;;1.95;0.88;;;16.00;99.90;;;;;;2017172;29;20198;-75
2021/07/25 02:27:12;;;;;;;1.20;1.00;;;16.00;99.90;;;;;;2017152;29;20178;-75
2021/07/25 02:28:13;;;;;;;2.53;0.87;;;16.00;99.90;;;;;;2025008;29;20193;-75
2021/07/25 02:29:14;;;;;;;0.80;0.63;;;16.00;99.90;;;;;;2027193;29;20193;-75
2021/07/25 02:30:15;;;;;;;1.10;1.10;;;16.00;99.90;;;;;;2024890;29;20228;-75
2021/07/25 02:31:15;;;;;;;0.87;0.87;;;16.00;99.90;;;;;;2025031;29;20616;-75
2021/07/25 02:32:16;;;;;;;0.83;0.83;;;16.10;99.90;;;;;;2024867;29;20272;-75
2021/07/25 02:33:17;;;;;;;0.60;0.57;;;16.00;99.90;;;;;;2016966;29;20239;-75
2021/07/25 02:34:17;;;;;;;0.43;0.43;;;16.00;99.90;;;;;;2017111;29;20221;-74
2021/07/25 02:35:18;;;;;;;0.60;0.60;;;15.90;99.90;;;;;;2017123;29;20252;-74
2021/07/25 02:36:19;;;;;;;0.77;0.77;;;15.90;99.90;;;;;;2009578;29;20190;-74
2021/07/25 02:37:19;;;;;;;0.83;0.83;;;15.90;99.90;;;;;;2016976;29;20686;-75
2021/07/25 02:38:20;;;;;;;0.97;0.97;;;16.00;99.90;;;;;;2024768;29;20265;-74
2021/07/25 02:39:21;;;;;;;0.77;0.77;;;16.00;99.90;;;;;;2024821;29;20212;-74
2021/07/25 02:40:22;;;;;;;0.73;0.73;;;16.00;99.90;;;;;;2024875;29;20240;-74
2021/07/25 02:41:23;;;;;;;0.52;0.52;;;16.10;99.90;;;;;;2017075;29;20225;-74
2021/07/25 02:42:24;;;;;;;3.00;0.93;;;16.10;99.90;;;;;;2009418;29;20186;-74
2021/07/25 02:43:25;;;;;;;0.57;0.57;;;16.00;99.90;;;;;;2017100;29;20284;-75
2021/07/25 02:44:25;;;;;;;1.30;0.97;;;16.00;99.90;;;;;;2017048;29;20220;-75
2021/07/25 02:45:26;;;;;;;0.80;0.80;;;16.00;99.90;;;;;;2017379;29;20205;-74
2021/07/25 02:46:27;;;;;;;0.70;0.70;;;16.00;99.90;;;;;;2024835;29;20252;-74
2021/07/25 02:47:27;;;;;;;0.47;0.47;;;15.90;99.90;;;;;;2017147;29;20198;-74
2021/07/25 02:48:28;;;;;;;0.80;0.50;;;15.90;99.90;;;;;;2017093;29;20178;-74
2021/07/25 02:49:29;;;;;;;0.70;0.70;;;15.90;99.90;;;;;;2016474;29;20800;-74
2021/07/25 02:50:29;;;;;;;0.77;0.77;;;15.90;99.90;;;;;;2017018;29;20692;-74
2021/07/25 02:51:30;;;;;;;0.73;0.73;;;15.90;99.90;;;;;;2024871;29;20226;-74
2021/07/25 02:52:31;;;;;;;1.23;1.13;;;15.90;99.90;;;;;;2024796;29;20289;-75
2021/07/25 02:53:31;;;;;;;1.60;1.30;;;15.90;99.90;;;;;;2017226;29;20190;-75
2021/07/25 02:54:32;;;;;;;1.10;1.00;;;15.90;99.90;;;;;;2009325;29;20220;-75
2021/07/25 02:55:33;;;;;;;3.10;0.97;;;15.80;99.90;;;;;;2017097;29;20186;-74
2021/07/25 02:56:33;;;;;;;1.10;1.03;;;15.80;99.90;;;;;;2009318;29;20282;-74
2021/07/25 02:57:34;;;;;;;0.83;0.83;;;15.70;99.90;;;;;;2017023;29;20222;-76
2021/07/25 02:58:35;;;;;;;0.83;0.83;;;15.70;99.90;;;;;;2024711;29;20189;-74
2021/07/25 02:59:35;;;;;;;1.00;1.00;;;15.60;99.90;;;;;;2016850;29;20772;-75
2021/07/25 03:00:36;;;;;;;1.03;0.73;;;15.60;99.90;;;;;;2009299;29;20213;-74
2021/07/25 03:01:37;;;;;;;1.10;0.90;;;15.60;99.90;;;;;;2009475;29;20191;-74
2021/07/25 03:02:38;;;;;;;0.70;0.70;;;15.60;99.90;;;;;;2016980;29;20280;-75
2021/07/25 03:03:39;;;;;;;0.70;0.70;;;15.50;99.90;;;;;;2024631;29;20193;-74
2021/07/25 03:04:41;;;;;;;0.60;0.60;;;15.50;99.90;;;;;;2016933;29;20213;-74
2021/07/25 03:05:42;;;;;;;1.38;1.27;;;15.50;99.90;;;;;;2009505;29;20310;-74
2021/07/25 03:06:43;;;;;;;0.90;0.90;;;15.50;99.90;;;;;;2017193;29;20179;-75
2021/07/25 03:07:43;;;;;;;0.80;0.80;;;15.50;99.90;;;;;;2016882;29;20191;-75
2021/07/25 03:08:44;;;;;;;0.83;0.83;;;15.40;99.90;;;;;;2017071;29;20419;-74
2021/07/25 03:09:45;;;;;;;2.03;1.47;;;15.40;99.90;;;;;;2016986;29;20186;-75
2021/07/25 03:10:45;;;;;;;1.00;0.63;;;15.40;99.90;;;;;;2009333;29;20206;-75
2021/07/25 03:11:46;;;;;;;1.23;1.07;;;15.40;99.90;;;;;;2016911;29;20310;-74
2021/07/25 03:12:47;;;;;;;1.10;1.10;;;15.40;99.90;;;;;;2024714;29;20675;-74
2021/07/25 03:13:48;;;;;;;0.93;0.93;;;15.30;99.90;;;;;;2017674;29;20178;-75
2021/07/25 03:14:48;;;;;;;0.67;0.60;;;15.30;99.90;;;;;;2024659;29;20178;-74
2021/07/25 03:15:49;;;;;;;0.70;0.70;;;15.30;99.90;;;;;;2024581;29;20245;-75
2021/07/25 03:16:50;;;;;;;1.23;1.07;;;15.30;99.90;;;;;;2017479;29;20200;-74
2021/07/25 03:17:52;;;;;;;0.68;0.68;;;15.30;99.90;;;;;;2024766;29;20177;-74
2021/07/25 03:18:53;;;;;;;0.63;0.63;;;15.30;99.90;;;;;;2009183;29;20573;-74
2021/07/25 03:19:53;;;;;;;1.20;1.10;;;15.30;99.90;;;;;;2009315;29;20187;-74
2021/07/25 03:20:54;;;;;;;0.70;0.70;;;15.30;99.90;;;;;;2017733;29;20642;-74
2021/07/25 03:21:55;;;;;;;0.80;0.80;;;15.30;99.90;;;;;;2016751;29;20191;-74
2021/07/25 03:22:55;;;;;;;1.30;1.07;;;15.30;99.90;;;;;;2016920;29;20191;-75
2021/07/25 03:23:56;;;;;;;0.73;0.73;;;15.30;99.90;;;;;;2017588;29;20645;-75
2021/07/25 03:24:57;;;;;;;1.17;1.10;;;15.30;99.90;;;;;;2017563;29;20186;-74
2021/07/25 03:25:57;;;;;;;0.50;0.50;;;15.30;99.90;;;;;;2024585;29;20199;-74
2021/07/25 03:26:58;;;;;;;0.50;0.50;;;15.30;99.90;;;;;;2024468;29;20186;-74
2021/07/25 03:27:59;;;;;;;1.40;1.30;;;15.20;99.90;;;;;;2016764;29;20242;-76
2021/07/25 03:28:59;;;;;;;1.00;1.00;;;15.20;99.90;;;;;;2016874;29;20178;-74
2021/07/25 03:30:00;;;;;;;1.03;1.03;;;15.20;99.90;;;;;;2016771;29;20193;-74
2021/07/25 03:31:01;;;;;;;0.50;0.50;;;15.10;99.90;;;;;;2009181;29;20187;-74
2021/07/25 03:32:02;;;;;;;0.53;0.53;;;15.10;99.90;;;;;;2016659;29;20730;-74
2021/07/25 03:33:02;;;;;;;0.65;0.65;;;15.20;99.90;;;;;;2025247;29;20225;-73
2021/07/25 03:34:04;;;;;;;0.70;0.70;;;15.10;99.90;;;;;;2024851;29;20178;-74
2021/07/25 03:35:05;;;;;;;0.60;0.60;;;15.10;99.90;;;;;;2016908;29;20843;-74
2021/07/25 03:36:05;;;;;;;2.23;1.20;;;15.10;99.90;;;;;;2017042;29;20183;-75
2021/07/25 03:37:06;;;;;;;1.33;0.57;;;15.20;99.90;;;;;;2009014;29;20517;-74
2021/07/25 03:38:07;;;;;;;1.20;1.10;;;15.20;99.90;;;;;;2009293;29;20242;-74
2021/07/25 03:39:15;;;;;;;0.65;0.65;;;15.20;99.90;;;;;;2017202;29;20194;-74
2021/07/25 03:40:15;;;;;;;0.57;0.57;;;15.20;99.90;;;;;;2008773;29;20302;-75
2021/07/25 03:41:16;;;;;;;0.70;0.70;;;15.10;99.90;;;;;;2008992;29;20642;-75
2021/07/25 03:42:17;;;;;;;1.17;1.03;;;15.10;99.90;;;;;;2016662;29;20186;-75
2021/07/25 03:43:18;;;;;;;2.00;1.10;;;15.00;99.90;;;;;;2016530;29;20720;-75
2021/07/25 03:44:18;;;;;;;0.90;0.77;;;15.00;99.90;;;;;;2024242;29;20187;-75
2021/07/25 03:45:19;;;;;;;0.90;0.90;;;15.00;99.90;;;;;;2024338;29;20661;-75
2021/07/25 03:46:20;;;;;;;1.40;1.30;;;15.10;99.90;;;;;;2017234;29;20175;-75
2021/07/25 03:47:20;;;;;;;0.70;0.70;;;15.10;99.90;;;;;;2017089;29;20739;-75
2021/07/25 03:48:22;;;;;;;1.13;1.03;;;15.20;99.90;;;;;;2024283;29;20238;-74
2021/07/25 03:49:22;;;;;;;0.95;0.93;;;15.20;99.90;;;;;;2016569;29;20182;-75
2021/07/25 03:50:23;;;;;;;0.67;0.67;;;15.20;99.90;;;;;;2008850;29;20222;-75
2021/07/25 03:51:24;;;;;;;1.53;1.13;;;15.30;99.90;;;;;;2008812;29;20183;-75
2021/07/25 03:52:25;;;;;;;0.77;0.77;;;15.30;99.90;;;;;;2016526;29;20217;-75
2021/07/25 03:53:26;;;;;;;1.17;0.85;;;15.40;99.90;;;;;;2016558;29;20181;-75
2021/07/25 03:54:27;;;;;;;0.87;0.80;;;15.40;99.90;;;;;;2016538;29;20672;-75
2021/07/25 03:55:27;;;;;;;1.20;1.10;;;15.40;99.90;;;;;;2016652;29;20554;-75
2021/07/25 03:56:28;;;;;;;0.57;0.57;;;15.40;99.90;;;;;;2008903;29;20191;-75
2021/07/25 03:57:33;;;;;;;0.97;0.90;;;15.40;99.90;;;;;;2016492;29;20253;-75
2021/07/25 03:58:35;;;;;;;0.70;0.70;;;15.40;99.90;;;;;;2023699;29;20208;-74
2021/07/25 03:59:36;;;;;;;0.95;0.95;;;15.40;99.90;;;;;;2024214;29;20188;-75
2021/07/25 04:00:37;;;;;;;1.10;1.10;;;15.40;99.90;;;;;;2016422;29;20210;-75
2021/07/25 04:01:38;;;;;;;2.25;1.20;;;15.50;99.90;;;;;;2017159;29;20275;-75
2021/07/25 04:02:39;;;;;;;1.40;1.30;;;15.50;99.90;;;;;;2025800;29;20247;-75
2021/07/25 04:03:40;;;;;;;1.90;1.33;;;15.40;99.90;;;;;;2025817;29;20233;-75
2021/07/25 04:04:40;;;;;;;0.53;0.53;;;15.40;99.90;;;;;;2018572;29;20642;-75
2021/07/25 04:05:41;;;;;;;0.97;0.77;;;15.30;99.90;;;;;;2018614;29;20674;-75
2021/07/25 04:06:41;;;;;;;1.20;1.10;;;15.30;99.90;;;;;;2018636;29;20226;-75
2021/07/25 04:07:42;;;;;;;0.43;0.43;;;15.30;99.90;;;;;;2018483;29;20265;-75
2021/07/25 04:08:43;;;;;;;0.73;0.73;;;15.30;99.90;;;;;;2018628;29;20182;-75
2021/07/25 04:09:43;;;;;;;0.80;0.80;;;15.20;99.90;;;;;;2018465;29;20562;-75
2021/07/25 04:10:45;;;;;;;0.90;0.90;;;15.20;99.90;;;;;;2018554;29;20214;-75
2021/07/25 04:11:54;;;;;;;1.15;0.98;;;15.30;99.90;;;;;;2018399;29;20214;-75
2021/07/25 04:12:55;;;;;;;0.52;0.52;;;15.30;99.90;;;;;;2018594;29;20222;-75
2021/07/25 04:13:56;;;;;;;1.47;1.33;;;15.20;99.90;;;;;;2017802;29;20186;-75
2021/07/25 04:14:56;;;;;;;0.63;0.63;;;15.20;99.90;;;;;;2017976;29;20269;-75
2021/07/25 04:15:57;;;;;;;0.90;0.90;;;15.10;99.90;;;;;;2018491;29;20275;-75
2021/07/25 04:16:58;;;;;;;1.87;0.93;;;15.20;99.90;;;;;;2017763;29;20180;-75
2021/07/25 04:17:59;;;;;;;0.60;0.60;;;15.20;99.90;;;;;;2017934;29;20182;-75
2021/07/25 04:18:59;;;;;;;0.97;0.97;;;15.20;99.90;;;;;;2018598;29;20193;-75
2021/07/25 04:20:01;;;;;;;0.83;0.83;;;15.20;99.90;;;;;;2018353;29;20210;-75
2021/07/25 04:21:02;;;;;;;0.95;0.93;;;15.20;99.90;;;;;;2017828;29;20178;-75
2021/07/25 04:22:03;;;;;;;1.80;1.20;;;15.10;99.90;;;;;;2010237;29;20639;-74
2021/07/25 04:23:04;;;;;;;0.73;0.73;;;15.10;99.90;;;;;;2017963;29;20281;-75
2021/07/25 04:24:05;;;;;;;2.30;0.70;;;15.00;99.90;;;;;;2017983;29;20958;-75
2021/07/25 04:25:07;;;;;;;1.33;0.97;;;15.00;99.90;;;;;;2012002;29;20182;-75
2021/07/25 04:26:09;;;;;;;2.30;1.35;;;15.00;99.90;;;;;;2012035;29;20698;-75
2021/07/25 04:27:10;;;;;;;0.90;0.90;;;15.10;99.90;;;;;;2017779;29;20270;-75
2021/07/25 04:28:11;;;;;;;1.52;1.30;;;15.10;99.90;;;;;;2010134;29;20190;-75
2021/07/25 04:29:12;;;;;;;1.03;1.03;;;15.10;99.90;;;;;;2017795;29;20630;-74
2021/07/25 04:30:14;;;;;;;1.17;1.07;;;15.10;99.90;;;;;;2025527;29;20333;-75
2021/07/25 04:31:15;;;;;;;1.17;1.10;;;15.10;99.90;;;;;;2017779;29;20255;-75
2021/07/25 04:32:16;;;;;;;1.60;1.17;;;15.10;99.90;;;;;;2010134;29;20184;-75
2021/07/25 04:33:19;;;;;;;1.65;1.55;;;15.20;99.90;;;;;;2017798;29;20183;-75
2021/07/25 04:34:21;;;;;;;0.90;0.90;;;15.30;99.90;;;;;;2018457;29;20182;-75
2021/07/25 04:35:22;;;;;;;1.63;1.52;;;15.30;99.90;;;;;;2018645;29;20183;-75
2021/07/25 04:36:27;;;;;;;1.05;1.05;;;15.30;99.90;;;;;;2018980;29;20210;-77
2021/07/25 04:37:29;;;;;;;1.55;1.45;;;15.40;99.90;;;;;;2018709;29;20188;-75
2021/07/25 04:38:30;;;;;;;2.40;1.33;;;15.40;99.90;;;;;;2018946;29;20246;-75
2021/07/25 04:39:31;;;;;;;2.60;1.50;;;15.50;99.90;;;;;;2026108;29;20681;-75
2021/07/25 04:40:32;;;;;;;1.05;1.00;;;15.60;99.90;;;;;;2026453;29;20202;-75
2021/07/25 04:41:49;;;;;;;1.27;1.17;;;15.70;99.90;;;;;;2026297;29;20269;-76
2021/07/25 04:42:53;;;;;;;2.70;1.17;;;15.80;99.90;;;;;;2018725;29;20269;-75
2021/07/25 04:44:29;;;;;;;1.55;1.45;;;15.90;99.90;;;;;;2011310;29;20616;-75
2021/07/25 04:46:11;;;;;;;1.90;1.58;;;16.00;99.90;;;;;;2017945;29;20197;-75
2021/07/25 04:47:18;;;;;;;1.08;1.00;;;15.90;99.90;;;;;;2025294;29;20182;-75
2021/07/25 04:48:52;;;;;;;1.55;1.45;;;15.90;99.90;;;;;;2017820;29;20169;-75
2021/07/25 04:50:13;;;;;;;1.70;1.10;;;16.10;99.90;;;;;;2017910;29;20193;-75
2021/07/25 04:51:16;;;;;;;1.50;1.40;;;16.10;99.90;;;;;;2025439;29;20898;-75
2021/07/25 04:52:20;;;;;;;1.45;1.35;;;16.10;99.90;;;;;;2025160;29;20188;-75
2021/07/25 04:53:25;;;;;;;2.00;1.90;;;16.20;99.90;;;;;;2024554;29;20237;-75
2021/07/25 04:54:34;;;;;;;1.02;1.02;;;16.30;99.90;;;;;;2025101;29;20445;-75
2021/07/25 04:55:36;;;;;;;1.57;1.20;;;16.30;99.90;;;;;;2026464;29;20174;-75
2021/07/25 04:56:56;;;;;;;1.80;1.23;;;16.40;99.90;;;;;;2033245;29;20431;-75
2021/07/25 04:58:07;;;;;;;1.50;1.38;;;16.50;99.90;;;;;;2026100;29;20193;-75
2021/07/25 04:59:15;;;;;;;0.77;0.77;;;16.60;99.90;;;;;;2025348;29;20616;-75
2021/07/25 05:00:16;;;;;;;1.30;1.20;;;16.60;99.90;;;;;;2018633;29;20451;-75
2021/07/25 05:01:32;;;;;;;0.87;0.87;;;16.60;99.90;;;;;;2025357;29;20437;-75
2021/07/25 05:02:37;;;;;;;1.13;1.03;;;16.60;99.90;;;;;;2025531;29;20808;-75
2021/07/25 05:03:38;;;;;;;1.60;0.90;;;16.60;99.90;;;;;;2018709;29;20477;-75
2021/07/25 05:04:39;;;;;;;1.00;1.00;;;16.60;99.90;;;;;;2017622;29;20454;-75
2021/07/25 05:05:40;;;;;;;1.50;1.40;;;16.60;99.90;;;;;;2017396;29;20186;-75
2021/07/25 05:06:41;;;;;;;1.35;1.27;;;16.60;99.90;;;;;;2017675;29;20179;-75
2021/07/25 05:07:42;;;;;;;1.13;0.70;;;16.70;99.90;;;;;;2025114;29;20186;-75
2021/07/25 05:08:44;;;;;;;1.27;1.25;;;16.70;99.90;;;;;;2025213;29;20433;-75
2021/07/25 05:09:45;;;;;;;0.83;0.83;;;16.60;99.90;;;;;;2017548;29;20402;-75
2021/07/25 05:10:48;;;;;;;1.20;1.10;;;16.60;99.90;;;;;;2017569;29;20494;-75
2021/07/25 05:12:01;;;;;;;1.33;1.23;;;16.60;99.90;;;;;;2017600;29;20477;-75
2021/07/25 05:13:07;;;;;;;1.20;0.98;;;16.60;99.90;;;;;;2025166;29;20547;-75
2021/07/25 05:14:20;;;;;;;1.77;1.30;;;16.60;99.90;;;;;;2025077;29;20605;-75
2021/07/25 05:15:30;;;;;;;1.63;1.20;;;16.70;99.90;;;;;;2025274;29;20417;-75
2021/07/25 05:16:40;;;;;;;1.35;1.25;;;16.70;99.90;;;;;;2017364;29;20473;-75
2021/07/25 05:17:55;;;;;;;1.45;1.20;;;16.70;99.90;;;;;;2011794;29;20168;-75
2021/07/25 05:19:14;;;;;;;1.85;1.20;;;16.80;99.90;;;;;;2019292;29;20226;-75
2021/07/25 05:20:16;;;;;;;2.78;1.98;;;16.80;99.90;;;;;;2025237;29;20261;-75
2021/07/25 05:21:24;;;;;;;1.23;1.10;;;16.80;99.90;;;;;;2032965;29;20185;-75
2021/07/25 05:22:56;;;;;;;2.10;1.50;;;16.80;99.90;;;;;;2025101;29;20418;-75
2021/07/25 05:24:02;;;;;;;1.40;1.10;;;16.80;99.90;;;;;;2021283;29;20497;-75
2021/07/25 05:25:07;;;;;;;2.77;1.53;;;16.80;99.90;;;;;;2018059;29;20941;-75
2021/07/25 05:26:12;;;;;;;1.03;1.03;;;16.90;99.90;;;;;;2018012;29;20464;-75
2021/07/25 05:27:23;;;;;;;1.43;1.33;;;16.90;99.90;;;;;;2017960;29;20998;-75
2021/07/25 05:28:26;;;;;;;3.10;1.27;;;16.90;99.90;;;;;;2018572;29;20474;-75
2021/07/25 05:29:30;;;;;;;1.30;1.20;;;17.00;99.90;;;;;;2025017;29;20429;-75